Time;durP1;ratioP1;P1;durP2;ratioP2;P2;SDS_P1;SDS_P2;PMS_P1;PMS_P2;Temp;Humidity;BMP_temperature;BMP_pressure;BME280_temperature;BME280_humidity;BME280_pressure;Samples;Min_cycle;Max_cycle;Signal;HPM_P1;HPM_P2
2022/11/22 00:01:32;;;;;;;78.30;70.50;;;;;;;2.11;93.71;96746.17;104959;1327;22123;-90
2022/11/22 00:04:00;;;;;;;72.50;65.30;;;;;;;2.30;93.03;96746.46;105303;1320;22139;-88
2022/11/22 00:06:28;;;;;;;70.20;63.60;;;;;;;2.27;91.31;96748.02;104926;1308;22103;-89
2022/11/22 00:08:56;;;;;;;71.80;64.90;;;;;;;2.17;90.71;96748.75;105345;1320;22227;-90
2022/11/22 00:11:24;;;;;;;75.50;68.60;;;;;;;2.08;91.08;96749.95;105036;1327;22163;-89
2022/11/22 00:13:51;;;;;;;75.90;69.00;;;;;;;1.94;90.74;96750.74;105046;1326;22197;-89
2022/11/22 00:16:19;;;;;;;79.30;72.20;;;;;;;1.79;90.86;96751.59;105007;1327;22221;-92
2022/11/22 00:18:47;;;;;;;73.30;66.30;;;;;;;1.61;90.90;96753.17;105060;1321;22175;-87
2022/11/22 00:21:15;;;;;;;72.50;65.00;;;;;;;1.47;90.90;96751.98;105438;1312;22251;-84
2022/11/22 00:23:43;;;;;;;68.60;61.90;;;;;;;1.36;91.26;96753.70;104942;1318;22363;-88
2022/11/22 00:26:11;;;;;;;65.40;59.20;;;;;;;1.26;91.15;96751.31;105022;1327;22291;-87
2022/11/22 00:28:39;;;;;;;79.20;65.10;;;;;;;1.14;91.31;96753.92;104877;1326;22140;-87
2022/11/22 00:31:07;;;;;;;70.40;63.30;;;;;;;1.01;91.36;96754.98;105295;1306;22956;-90
2022/11/22 00:33:35;;;;;;;64.60;58.40;;;;;;;0.88;91.33;96759.43;105284;1320;22259;-88
2022/11/22 00:36:03;;;;;;;59.20;53.60;;;;;;;0.82;91.82;96760.59;105404;1315;22142;-87
2022/11/22 00:38:31;;;;;;;58.50;53.30;;;;;;;0.79;91.78;96762.81;105030;1327;22164;-86
2022/11/22 00:40:59;;;;;;;60.50;55.10;;;;;;;0.71;91.76;96759.20;105383;1303;22267;-87
2022/11/22 00:43:27;;;;;;;67.70;61.70;;;;;;;0.61;91.68;96752.25;104970;1327;22203;-87
2022/11/22 00:45:55;;;;;;;69.00;62.90;;;;;;;0.55;91.61;96754.93;104847;1328;22230;-87
2022/11/22 00:48:23;;;;;;;71.40;65.00;;;;;;;0.47;91.71;96764.30;105025;1327;22186;-87
2022/11/22 00:50:51;;;;;;;75.00;68.10;;;;;;;0.32;91.81;96770.35;104876;1326;22901;-87
2022/11/22 00:53:19;;;;;;;72.10;65.30;;;;;;;0.18;92.21;96774.27;104917;1327;22151;-87
2022/11/22 00:55:48;;;;;;;68.70;62.40;;;;;;;0.08;92.02;96773.81;105417;1309;22183;-89
2022/11/22 00:58:16;;;;;;;75.90;68.80;;;;;;;-0.01;92.27;96774.25;104902;1327;22258;-88
2022/11/22 01:00:44;;;;;;;74.90;68.00;;;;;;;-0.12;92.50;96766.25;104728;1326;22204;-89
2022/11/22 01:03:12;;;;;;;70.90;64.50;;;;;;;-0.17;92.58;96780.20;104842;1327;22178;-87
2022/11/22 01:05:40;;;;;;;86.50;78.60;;;;;;;-0.24;92.65;96781.17;104900;1327;22893;-88
2022/11/22 01:08:08;;;;;;;76.80;69.80;;;;;;;-0.29;92.82;96785.91;105003;1320;22651;-86
2022/11/22 01:10:36;;;;;;;78.20;71.00;;;;;;;-0.37;92.77;96787.73;104900;1326;22845;-87
2022/11/22 01:13:05;;;;;;;75.00;68.10;;;;;;;-0.41;92.75;96786.05;104795;1327;22918;-88
2022/11/22 01:15:33;;;;;;;77.40;70.50;;;;;;;-0.43;92.72;96785.56;104855;1328;22118;-88
2022/11/22 01:18:01;;;;;;;73.00;66.30;;;;;;;-0.40;92.68;96781.81;104775;1327;22318;-85
2022/11/22 01:20:29;;;;;;;83.40;75.90;;;;;;;-0.42;92.70;96778.33;104925;1327;22140;-87
2022/11/22 01:22:57;;;;;;;85.30;77.30;;;;;;;-0.52;92.29;96779.85;104768;1327;22107;-87
2022/11/22 01:25:26;;;;;;;81.40;74.10;;;;;;;-0.60;92.58;96781.27;104843;1327;22898;-88
2022/11/22 01:27:54;;;;;;;82.40;75.00;;;;;;;-0.66;92.55;96788.16;104981;1327;22329;-87
2022/11/22 01:30:22;;;;;;;76.90;69.70;;;;;;;-0.70;92.75;96779.99;104843;1327;22221;-86
2022/11/22 01:32:51;;;;;;;71.20;64.40;;;;;;;-0.68;92.74;96778.20;105000;1327;23257;-86
2022/11/22 01:35:19;;;;;;;74.60;68.00;;;;;;;-0.67;92.62;96775.66;104748;1314;22248;-87
2022/11/22 01:37:47;;;;;;;79.50;72.50;;;;;;;-0.69;92.75;96769.41;104973;1327;22893;-85
2022/11/22 01:40:15;;;;;;;77.90;71.10;;;;;;;-0.72;92.62;96766.42;104988;1321;22329;-88
2022/11/22 01:42:55;;;;;;;80.30;72.80;;;;;;;-0.79;92.75;96765.37;104854;1327;22119;-87
2022/11/22 01:45:29;;;;;;;72.50;65.90;;;;;;;-0.79;93.05;96766.37;104905;1326;22108;-87
2022/11/22 01:47:59;;;;;;;;;;;;;;;-0.78;92.94;96761.20;105009;1324;22385;-87
2022/11/22 01:50:31;;;;;;;70.60;64.00;;;;;;;-0.77;92.93;96761.72;105310;1319;22875;-86
2022/11/22 01:53:05;;;;;;;65.30;59.40;;;;;;;-0.73;92.95;96756.74;105238;1317;22311;-87
2022/11/22 01:55:34;;;;;;;69.20;62.70;;;;;;;-0.69;93.03;96747.46;105154;1327;22108;-89
2022/11/22 01:58:03;;;;;;;67.20;61.30;;;;;;;-0.67;93.16;96746.47;104911;1327;22143;-87
2022/11/22 02:00:31;;;;;;;76.10;69.30;;;;;;;-0.66;93.20;96745.26;105420;1312;22259;-85
2022/11/22 02:03:02;;;;;;;70.10;63.70;;;;;;;-0.67;93.23;96744.40;104824;1327;22205;-86
2022/11/22 02:05:34;;;;;;;68.80;62.30;;;;;;;-0.65;93.12;96742.86;104827;1322;22101;-87
2022/11/22 02:12:35;;;;;;;107.50;96.10;;;;;;;-0.72;92.01;96743.63;104834;1327;22788;-86
2022/11/22 02:15:03;;;;;;;109.80;98.30;;;;;;;-0.77;92.57;96744.17;104822;1327;22218;-85
2022/11/22 02:17:31;;;;;;;108.10;96.40;;;;;;;-0.84;92.68;96738.46;104810;1327;22216;-84
2022/11/22 02:19:59;;;;;;;107.80;96.10;;;;;;;-0.87;92.69;96739.61;104920;1327;22116;-85
2022/11/22 02:22:39;;;;;;;100.90;90.20;;;;;;;-0.93;92.66;96733.54;104974;1327;22241;-84
2022/11/22 02:25:31;;;;;;;92.40;83.90;;;;;;;-0.98;92.54;96732.27;105199;1320;22222;-85
2022/11/22 02:28:03;;;;;;;92.10;82.80;;;;;;;-1.00;92.62;96736.70;105342;1320;22243;-85
2022/11/22 02:30:31;;;;;;;96.00;86.60;;;;;;;-1.00;92.46;96736.23;105425;1319;22265;-84
2022/11/22 02:32:59;;;;;;;100.80;90.60;;;;;;;-1.02;92.47;96732.30;104872;1327;22132;-84
2022/11/22 02:35:28;;;;;;;90.20;82.40;;;;;;;-1.05;92.61;96726.20;104888;1326;22229;-84
2022/11/22 02:38:19;;;;;;;92.00;83.50;;;;;;;-1.10;92.67;96720.70;104844;1327;22276;-85
2022/11/22 02:41:10;;;;;;;86.00;78.10;;;;;;;-1.18;92.39;96723.83;104852;1327;22974;-84
2022/11/22 02:43:43;;;;;;;85.50;77.30;;;;;;;-1.21;92.51;96723.84;104840;1327;22168;-85
2022/11/22 02:46:20;;;;;;;83.30;75.60;;;;;;;-1.20;92.48;96718.67;104779;1328;22082;-84
2022/11/22 02:48:48;;;;;;;82.60;75.30;;;;;;;-1.21;92.32;96724.70;104919;1327;22226;-84
2022/11/22 02:51:18;;;;;;;77.30;70.20;;;;;;;-1.23;92.46;96727.01;104770;1327;22204;-84
2022/11/22 02:53:48;;;;;;;89.60;81.60;;;;;;;-1.28;92.56;96725.43;104852;1327;22296;-84
2022/11/22 02:56:17;;;;;;;85.40;77.50;;;;;;;-1.33;92.79;96722.89;105087;1320;22269;-84
2022/11/22 02:58:45;;;;;;;82.10;74.60;;;;;;;-1.37;92.79;96720.86;104999;1326;22862;-84
2022/11/22 03:01:13;;;;;;;78.10;70.70;;;;;;;-1.41;92.60;96723.52;105440;1318;22362;-85
2022/11/22 03:03:41;;;;;;;74.20;67.00;;;;;;;-1.43;92.74;96718.43;104924;1327;22690;-84
2022/11/22 03:06:09;;;;;;;78.40;71.50;;;;;;;-1.42;92.59;96715.91;105439;1308;22853;-83
2022/11/22 03:08:37;;;;;;;79.80;72.80;;;;;;;-1.43;92.34;96714.46;105025;1327;22237;-84
2022/11/22 03:11:05;;;;;;;77.40;70.50;;;;;;;-1.48;92.48;96707.71;105291;1315;22843;-83
2022/11/22 03:13:33;;;;;;;87.90;79.30;;;;;;;-1.57;92.23;96703.45;104970;1327;22203;-83
2022/11/22 03:16:01;;;;;;;82.50;74.80;;;;;;;-1.70;92.27;96701.90;105065;1314;22218;-83
2022/11/22 03:18:29;;;;;;;81.50;74.50;;;;;;;-1.75;92.48;96702.38;104896;1313;22246;-84
2022/11/22 03:21:01;;;;;;;73.50;67.10;;;;;;;-1.76;92.64;96698.73;105315;1315;22188;-83
2022/11/22 03:23:29;;;;;;;92.60;84.10;;;;;;;-1.76;92.57;96700.52;105450;1312;22837;-84
2022/11/22 03:25:58;;;;;;;81.20;74.20;;;;;;;-1.80;92.63;96704.76;104915;1326;22207;-83
2022/11/22 03:28:26;;;;;;;75.90;69.40;;;;;;;-1.85;92.79;96705.08;105292;1320;22152;-83
2022/11/22 03:30:53;;;;;;;77.50;70.30;;;;;;;-1.86;93.16;96698.10;105010;1326;22178;-83
2022/11/22 03:33:21;;;;;;;71.50;65.20;;;;;;;-1.89;92.63;96696.65;104891;1326;22976;-82
2022/11/22 03:35:49;;;;;;;66.40;60.40;;;;;;;-1.91;92.79;96698.16;105002;1311;22124;-83
2022/11/22 03:38:17;;;;;;;69.40;63.10;;;;;;;-1.86;93.19;96700.80;104808;1327;22261;-83
2022/11/22 03:40:45;;;;;;;71.30;64.90;;;;;;;-1.80;93.41;96703.18;105422;1319;22160;-83
2022/11/22 03:43:13;;;;;;;68.40;62.40;;;;;;;-1.75;93.69;96701.23;104924;1327;22161;-83
2022/11/22 03:45:45;;;;;;;65.40;59.50;;;;;;;-1.72;93.56;96701.41;104972;1311;23515;-83
2022/11/22 03:48:14;;;;;;;64.50;58.60;;;;;;;-1.66;93.58;96707.11;104975;1326;22172;-83
2022/11/22 03:50:42;;;;;;;62.00;56.50;;;;;;;-1.58;93.53;96700.05;104723;1327;23027;-82
2022/11/22 03:53:10;;;;;;;67.80;61.80;;;;;;;-1.51;93.75;96702.77;104753;1316;22961;-83
2022/11/22 03:55:39;;;;;;;64.20;58.50;;;;;;;-1.48;93.39;96699.25;104923;1327;22231;-84
2022/11/22 03:58:07;;;;;;;63.90;58.20;;;;;;;-1.48;93.74;96698.67;104746;1327;22205;-84
2022/11/22 04:00:35;;;;;;;62.80;56.90;;;;;;;-1.48;93.60;96697.77;104818;1327;22948;-83
2022/11/22 04:03:03;;;;;;;58.40;52.50;;;;;;;-1.45;93.79;96700.45;104837;1327;22177;-84
2022/11/22 04:05:31;;;;;;;54.30;49.30;;;;;;;-1.40;93.99;96701.02;104749;1323;22710;-84
2022/11/22 04:07:59;;;;;;;55.20;49.90;;;;;;;-1.29;94.35;96697.30;104953;1327;22257;-86
2022/11/22 04:10:27;;;;;;;57.70;52.60;;;;;;;-1.17;94.65;96697.18;104740;1327;22303;-84
2022/11/22 04:12:57;;;;;;;53.80;48.90;;;;;;;-1.05;94.88;96693.41;105371;1311;22168;-82
2022/11/22 04:15:25;;;;;;;60.00;54.60;;;;;;;-0.93;95.43;96695.73;104875;1327;23473;-83
2022/11/22 04:17:53;;;;;;;58.20;53.00;;;;;;;-0.82;95.18;96694.00;104803;1327;22107;-83
2022/11/22 04:23:20;;;;;;;54.70;49.80;;;;;;;-0.66;95.30;96696.05;104954;1327;22207;-83
2022/11/22 04:25:50;;;;;;;59.30;53.50;;;;;;;-0.61;95.34;96693.16;104934;1327;22197;-83
2022/11/22 04:28:21;;;;;;;54.30;49.50;;;;;;;-0.58;95.51;96691.76;104618;1327;22079;-84
2022/11/22 04:34:50;;;;;;;41.20;37.50;;;;;;;-0.48;95.40;96681.80;104888;1327;22241;-83
2022/11/22 04:37:18;;;;;;;39.60;35.90;;;;;;;-0.41;95.56;96676.11;104933;1326;22166;-84
2022/11/22 04:39:46;;;;;;;38.30;34.80;;;;;;;-0.34;95.97;96673.70;104727;1327;22109;-84
2022/11/22 04:45:00;;;;;;;39.70;36.20;;;;;;;-0.26;95.96;96675.70;104754;1327;22209;-84
2022/11/22 04:53:03;;;;;;;35.80;32.30;;;;;;;-0.17;95.84;96674.84;104929;1324;22124;-83
2022/11/22 04:55:31;;;;;;;33.70;30.80;;;;;;;-0.15;95.67;96676.80;105426;1315;22130;-83
2022/11/22 04:58:00;;;;;;;42.60;38.00;;;;;;;-0.13;95.79;96671.20;104886;1322;22109;-84
2022/11/22 05:00:29;;;;;;;39.60;35.80;;;;;;;-0.11;95.73;96677.98;104814;1327;22245;-84
2022/11/22 05:02:57;;;;;;;40.20;36.70;;;;;;;-0.12;95.86;96672.52;104866;1327;22271;-83
2022/11/22 05:05:25;;;;;;;34.90;31.90;;;;;;;-0.13;96.16;96670.83;104747;1327;22211;-84
2022/11/22 05:08:46;;;;;;;42.90;39.10;;;;;;;-0.10;96.33;96670.56;104823;1327;22184;-84
2022/11/22 05:11:14;;;;;;;43.80;40.00;;;;;;;-0.03;96.70;96673.23;105319;1320;22179;-83
2022/11/22 05:13:42;;;;;;;51.40;46.90;;;;;;;-0.01;96.83;96675.20;104816;1322;22107;-84
2022/11/22 05:16:14;;;;;;;56.40;51.50;;;;;;;-0.03;96.55;96678.53;105139;1309;22745;-84
2022/11/22 05:18:42;;;;;;;56.90;51.80;;;;;;;-0.06;96.62;96684.78;105379;1319;22262;-83
2022/11/22 05:21:12;;;;;;;55.40;50.50;;;;;;;-0.08;96.49;96682.66;105125;1306;22169;-83
2022/11/22 05:23:55;;;;;;;58.90;53.40;;;;;;;-0.09;96.59;96683.23;104997;1327;22204;-83
2022/11/22 05:26:30;;;;;;;56.40;51.30;;;;;;;-0.13;96.79;96677.55;105012;1327;22197;-83
2022/11/22 05:29:03;;;;;;;63.30;57.60;;;;;;;-0.16;96.98;96676.84;104846;1327;22220;-83
2022/11/22 05:31:33;;;;;;;56.20;51.40;;;;;;;-0.17;96.91;96675.79;104807;1323;22248;-83
2022/11/22 05:34:01;;;;;;;49.90;45.40;;;;;;;-0.20;97.11;96675.62;104826;1327;22210;-83
2022/11/22 05:36:31;;;;;;;42.60;38.90;;;;;;;-0.19;97.63;96671.50;104899;1327;22226;-83
2022/11/22 05:39:00;;;;;;;39.60;36.00;;;;;;;-0.15;97.62;96672.41;104791;1327;22792;-83
2022/11/22 05:41:28;;;;;;;31.50;28.60;;;;;;;-0.09;97.79;96667.23;105292;1314;22121;-84
2022/11/22 05:43:56;;;;;;;26.30;24.00;;;;;;;-0.01;97.92;96669.27;105445;1319;22411;-84
2022/11/22 05:46:27;;;;;;;28.40;25.80;;;;;;;0.09;98.29;96673.96;104815;1327;22771;-83
2022/11/22 05:48:57;;;;;;;31.80;28.90;;;;;;;0.17;98.22;96676.95;104913;1327;22273;-84
2022/11/22 05:51:30;;;;;;;48.40;44.10;;;;;;;0.20;97.97;96675.67;104946;1327;23072;-84
2022/11/22 05:54:02;;;;;;;53.70;49.30;;;;;;;0.15;97.64;96673.50;104885;1327;22255;-83
2022/11/22 05:56:30;;;;;;;50.90;46.40;;;;;;;0.10;97.57;96679.36;105093;1315;22052;-83
2022/11/22 05:58:58;;;;;;;50.40;45.80;;;;;;;0.06;97.81;96679.83;105041;1325;22210;-83
2022/11/22 06:01:26;;;;;;;48.60;44.30;;;;;;;0.02;98.01;96678.34;105492;1319;22059;-83
2022/11/22 06:03:54;;;;;;;42.60;38.70;;;;;;;0.00;98.24;96679.13;104790;1327;22987;-83
2022/11/22 06:06:22;;;;;;;38.30;34.70;;;;;;;-0.01;98.22;96681.45;105022;1319;22246;-83
2022/11/22 06:08:50;;;;;;;43.00;39.10;;;;;;;-0.01;98.23;96682.10;105031;1326;22957;-83
2022/11/22 06:11:24;;;;;;;41.60;37.90;;;;;;;-0.02;98.10;96683.10;104907;1327;22230;-83
2022/11/22 06:13:58;;;;;;;49.50;45.00;;;;;;;-0.04;98.21;96680.81;104894;1327;22300;-82
2022/11/22 06:16:26;;;;;;;54.20;49.20;;;;;;;-0.05;98.35;96682.50;105278;1318;22181;-81
2022/11/22 06:18:55;;;;;;;54.70;49.80;;;;;;;-0.08;98.12;96682.39;104894;1327;22221;-81
2022/11/22 06:21:24;;;;;;;59.80;54.00;;;;;;;-0.08;98.06;96680.58;104834;1327;22297;-81
2022/11/22 06:23:53;;;;;;;63.10;57.20;;;;;;;-0.09;98.06;96681.49;104797;1327;22199;-82
2022/11/22 06:26:23;;;;;;;66.30;60.30;;;;;;;-0.10;98.04;96690.59;104782;1325;22190;-82
2022/11/22 06:28:52;;;;;;;73.80;67.00;;;;;;;-0.14;98.12;96693.38;104799;1322;22269;-82
2022/11/22 06:31:22;;;;;;;64.50;58.50;;;;;;;-0.15;98.29;96698.55;105013;1326;22171;-81
2022/11/22 06:33:53;;;;;;;53.90;49.00;;;;;;;-0.17;98.25;96699.25;105008;1327;22879;-82
2022/11/22 06:36:24;;;;;;;47.40;43.00;;;;;;;-0.15;98.24;96701.91;105301;1320;22058;-81
2022/11/22 06:38:52;;;;;;;43.00;39.00;;;;;;;-0.10;98.14;96702.88;104798;1315;22217;-82
2022/11/22 06:41:23;;;;;;;45.90;41.90;;;;;;;-0.06;98.26;96705.70;104921;1327;22214;-82
2022/11/22 06:43:52;;;;;;;46.10;42.00;;;;;;;-0.02;98.34;96708.30;104938;1326;22108;-85
2022/11/22 06:46:22;;;;;;;44.10;40.10;;;;;;;0.00;98.44;96711.96;104899;1321;22169;-83
2022/11/22 06:48:51;;;;;;;40.30;36.70;;;;;;;0.01;98.53;96714.52;104953;1326;22081;-83
2022/11/22 06:51:22;;;;;;;35.20;32.00;;;;;;;0.02;98.50;96715.20;105365;1320;22101;-83
2022/11/22 06:53:51;;;;;;;34.60;31.60;;;;;;;0.06;98.74;96719.14;105010;1327;22235;-82
2022/11/22 06:56:25;;;;;;;33.20;30.10;;;;;;;0.10;98.92;96719.15;104784;1327;22080;-81
2022/11/22 06:58:54;;;;;;;36.90;33.60;;;;;;;0.16;98.84;96717.41;104825;1327;22215;-82
2022/11/22 07:01:27;;;;;;;37.50;34.30;;;;;;;0.20;98.87;96721.19;104852;1327;22239;-84
2022/11/22 07:03:56;;;;;;;39.80;36.30;;;;;;;0.23;99.07;96726.17;104800;1327;23230;-82
2022/11/22 07:06:30;;;;;;;39.30;35.80;;;;;;;0.24;98.94;96730.86;104893;1327;22265;-82
2022/11/22 07:09:00;;;;;;;36.80;33.30;;;;;;;0.24;99.11;96733.66;104778;1327;22104;-83
2022/11/22 07:11:30;;;;;;;35.00;31.80;;;;;;;0.26;99.03;96737.69;104851;1327;22207;-84
2022/11/22 07:13:59;;;;;;;35.70;32.50;;;;;;;0.29;99.20;96738.23;104888;1322;22260;-84
2022/11/22 07:16:36;;;;;;;35.40;32.20;;;;;;;0.32;99.32;96741.25;105306;1320;22251;-85
2022/11/22 07:19:05;;;;;;;34.80;31.80;;;;;;;0.34;99.42;96733.52;105319;1318;22807;-84
2022/11/22 07:21:33;;;;;;;34.90;31.80;;;;;;;0.36;99.48;96733.96;105197;1319;169840;-84
2022/11/22 07:24:03;;;;;;;34.60;31.60;;;;;;;0.39;99.64;96731.30;105480;1320;22122;-83
2022/11/22 07:26:31;;;;;;;33.00;30.00;;;;;;;0.45;99.60;96724.80;105463;1319;22096;-83
2022/11/22 07:28:59;;;;;;;39.20;35.60;;;;;;;0.52;99.70;96716.48;105014;1327;22270;-84
2022/11/22 07:31:27;;;;;;;36.70;33.30;;;;;;;0.57;99.71;96717.66;105366;1320;22215;-84
2022/11/22 07:33:59;;;;;;;32.20;29.30;;;;;;;0.63;99.71;96723.40;105452;1308;22148;-84
2022/11/22 07:36:29;;;;;;;27.80;25.30;;;;;;;0.68;99.70;96727.59;105466;1310;22190;-84
2022/11/22 07:38:57;;;;;;;27.50;25.10;;;;;;;0.75;99.65;96729.46;105352;1320;22645;-83
2022/11/22 07:41:25;;;;;;;26.50;24.20;;;;;;;0.84;99.61;96724.32;104917;1327;22172;-83
2022/11/22 07:43:53;;;;;;;25.00;22.80;;;;;;;0.94;99.87;96720.55;104797;1326;22267;-82
2022/11/22 07:46:32;;;;;;;26.90;24.40;;;;;;;1.03;99.76;96720.66;105034;1325;22221;-83
2022/11/22 07:49:01;;;;;;;26.20;23.80;;;;;;;1.11;99.81;96720.61;105339;1320;22311;-83
2022/11/22 07:51:29;;;;;;;28.30;25.70;;;;;;;1.17;99.48;96726.86;105058;1327;22108;-83
2022/11/22 07:53:57;;;;;;;25.40;22.90;;;;;;;1.22;99.75;96726.91;104851;1328;22207;-85
2022/11/22 07:56:25;;;;;;;24.60;22.40;;;;;;;1.29;99.46;96723.61;104939;1327;22242;-84
2022/11/22 07:58:53;;;;;;;25.90;23.50;;;;;;;1.37;99.39;96721.95;105106;1311;22208;-85
2022/11/22 08:01:22;;;;;;;24.70;22.40;;;;;;;1.46;99.50;96725.34;105308;1320;22232;-83
2022/11/22 08:03:50;;;;;;;26.20;23.90;;;;;;;1.53;99.31;96724.25;104952;1326;22194;-83
2022/11/22 08:06:18;;;;;;;26.00;23.70;;;;;;;1.60;99.34;96720.48;104856;1326;22242;-84
2022/11/22 08:08:46;;;;;;;25.80;23.60;;;;;;;1.65;99.08;96722.36;105281;1306;22275;-84
2022/11/22 08:11:14;;;;;;;26.20;23.80;;;;;;;1.73;99.19;96728.40;105450;1319;22101;-86
2022/11/22 08:13:43;;;;;;;27.80;25.20;;;;;;;1.84;99.02;96736.18;104756;1328;22207;-85
2022/11/22 08:16:14;;;;;;;27.90;25.30;;;;;;;1.94;98.92;96733.33;105451;1319;22191;-84
2022/11/22 08:18:47;;;;;;;27.40;24.90;;;;;;;2.01;98.84;96734.14;105068;1311;22187;-85
2022/11/22 08:21:17;;;;;;;30.20;27.50;;;;;;;2.07;98.74;96741.94;105129;1319;22207;-85
2022/11/22 08:23:46;;;;;;;33.20;30.20;;;;;;;2.14;98.91;96745.52;105032;1327;22196;-86
2022/11/22 08:26:16;;;;;;;29.40;26.70;;;;;;;2.19;98.38;96742.95;104806;1329;22360;-87
2022/11/22 08:28:44;;;;;;;28.20;25.50;;;;;;;2.23;98.22;96741.23;105169;1313;22132;-87
2022/11/22 08:31:16;;;;;;;29.20;26.50;;;;;;;2.29;98.31;96739.56;105486;1315;22195;-85
2022/11/22 08:33:45;;;;;;;26.40;24.10;;;;;;;2.37;98.12;96738.23;104935;1327;22151;-86
2022/11/22 08:36:13;;;;;;;30.70;27.90;;;;;;;2.46;98.18;96734.15;105040;1327;22162;-85
2022/11/22 08:38:41;;;;;;;30.70;28.00;;;;;;;2.52;98.12;96736.88;105040;1326;22816;-84
2022/11/22 08:41:10;;;;;;;30.40;27.70;;;;;;;2.60;98.46;96741.52;105419;1320;22179;-85
2022/11/22 08:43:38;;;;;;;30.40;27.70;;;;;;;2.67;97.62;96747.16;105354;1311;22065;-85
2022/11/22 08:46:06;;;;;;;26.30;23.90;;;;;;;2.75;97.47;96745.20;104809;1333;22136;-85
2022/11/22 08:48:35;;;;;;;26.70;24.10;;;;;;;2.85;97.63;96742.77;105282;1308;22121;-85
2022/11/22 08:51:07;;;;;;;25.30;23.00;;;;;;;2.94;97.14;96749.64;104921;1330;22163;-84
2022/11/22 08:53:40;;;;;;;25.40;23.00;;;;;;;3.00;96.59;96743.69;105327;1321;22174;-84
2022/11/22 08:56:12;;;;;;;27.60;25.00;;;;;;;3.02;96.66;96745.05;104929;1327;22971;-83
2022/11/22 08:58:40;;;;;;;27.00;24.50;;;;;;;3.08;95.90;96746.92;105455;1319;22185;-86
2022/11/22 09:01:12;;;;;;;25.80;23.20;;;;;;;3.13;96.27;96748.65;105307;1323;22194;-85
2022/11/22 09:03:41;;;;;;;24.50;22.30;;;;;;;3.21;95.66;96745.43;105418;1318;22174;-85
2022/11/22 09:06:12;;;;;;;24.30;22.30;;;;;;;3.26;95.13;96744.90;105072;1322;22238;-87
2022/11/22 09:09:00;;;;;;;24.10;21.70;;;;;;;3.37;95.32;96750.35;104818;1330;22171;-85
2022/11/22 09:11:48;;;;;;;25.00;22.70;;;;;;;3.43;94.75;96749.29;105019;1327;22215;-86
2022/11/22 09:14:16;;;;;;;26.70;24.40;;;;;;;3.46;94.08;96746.08;105038;1326;22313;-87
2022/11/22 09:16:44;;;;;;;25.80;23.20;;;;;;;3.47;94.31;96743.06;105313;1312;22768;-88
2022/11/22 09:19:12;;;;;;;24.40;22.20;;;;;;;3.57;94.82;96742.39;105044;1301;23065;-86
2022/11/22 09:21:40;;;;;;;22.60;20.60;;;;;;;3.70;93.91;96740.73;105280;1320;22203;-88
2022/11/22 09:24:08;;;;;;;22.90;20.70;;;;;;;3.80;93.46;96740.98;105032;1327;22837;-88
2022/11/22 09:26:36;;;;;;;24.70;22.40;;;;;;;3.87;92.92;96747.36;105038;1327;22105;-89
2022/11/22 09:29:04;;;;;;;23.60;21.50;;;;;;;3.93;93.04;96744.09;104930;1326;22235;-89
2022/11/22 09:31:32;;;;;;;24.80;22.50;;;;;;;3.99;92.32;96744.77;105019;1326;23086;-88
2022/11/22 09:34:00;;;;;;;22.50;20.40;;;;;;;4.03;91.51;96738.33;104909;1330;22238;-87
2022/11/22 09:36:28;;;;;;;21.80;19.90;;;;;;;4.09;91.84;96736.38;104924;1328;22208;-87
2022/11/22 09:38:56;;;;;;;22.80;20.80;;;;;;;4.19;91.45;96740.42;104910;1327;22101;-86
2022/11/22 09:41:45;;;;;;;23.30;21.10;;;;;;;4.30;90.90;96735.06;104959;1316;22201;-86
2022/11/22 09:44:35;;;;;;;25.20;22.80;;;;;;;4.37;91.20;96730.55;104930;1329;22242;-87
2022/11/22 09:47:14;;;;;;;26.40;23.80;;;;;;;4.46;91.23;96729.67;105272;1319;22191;-86
2022/11/22 09:50:09;;;;;;;24.90;22.70;;;;;;;4.54;90.24;96731.28;104916;1330;22332;-84
2022/11/22 09:52:45;;;;;;;22.90;20.80;;;;;;;4.55;89.63;96734.13;105039;1331;22224;-85
2022/11/22 09:55:19;;;;;;;23.60;21.40;;;;;;;4.62;89.22;96732.73;104813;1329;22212;-84
2022/11/22 09:58:02;;;;;;;23.90;21.50;;;;;;;4.65;88.73;96722.65;105044;1326;22920;-85
2022/11/22 10:00:31;;;;;;;24.70;22.40;;;;;;;4.67;88.73;96717.54;105065;1326;23072;-85
2022/11/22 10:03:04;;;;;;;24.90;22.30;;;;;;;4.70;88.92;96719.84;104836;1329;22918;-86
2022/11/22 10:05:48;;;;;;;24.90;22.50;;;;;;;4.76;88.70;96718.11;105054;1326;22178;-86
2022/11/22 10:08:34;;;;;;;25.50;23.20;;;;;;;4.83;89.00;96718.91;104830;1327;22190;-87
2022/11/22 10:11:12;;;;;;;26.50;24.00;;;;;;;4.89;87.51;96719.36;105034;1327;22302;-85
2022/11/22 10:13:49;;;;;;;23.80;21.50;;;;;;;4.93;87.12;96717.25;104873;1330;22174;-86
2022/11/22 10:16:25;;;;;;;23.60;21.20;;;;;;;5.01;87.90;96714.84;105493;1319;22200;-87
2022/11/22 10:19:09;;;;;;;25.00;22.80;;;;;;;5.12;88.16;96713.38;104952;1327;22122;-85
2022/11/22 10:21:37;;;;;;;23.50;21.20;;;;;;;5.23;88.25;96706.16;104995;1326;22223;-85
2022/11/22 10:24:05;;;;;;;23.90;21.40;;;;;;;5.30;86.85;96704.91;105059;1327;22263;-86
2022/11/22 10:26:36;;;;;;;24.80;22.50;;;;;;;5.34;86.99;96705.95;104919;1327;22182;-88
2022/11/22 10:29:16;;;;;;;31.90;27.10;;;;;;;5.41;87.52;96707.02;104935;1327;22210;-88
2022/11/22 10:32:09;;;;;;;23.40;21.20;;;;;;;5.50;87.38;96707.02;105502;1305;22182;-85
2022/11/22 10:34:39;;;;;;;23.50;21.40;;;;;;;5.58;86.49;96699.55;104963;1327;22252;-87
2022/11/22 10:37:43;;;;;;;21.90;19.70;;;;;;;5.66;86.37;96705.06;105086;1326;22199;-86
2022/11/22 10:40:13;;;;;;;23.40;21.20;;;;;;;5.78;85.63;96703.23;104686;1327;22118;-84
2022/11/22 10:42:50;;;;;;;24.90;22.50;;;;;;;5.90;85.70;96699.54;105381;1319;22163;-86
2022/11/22 10:46:09;;;;;;;26.40;23.30;;;;;;;6.08;86.32;96698.23;105105;1327;22215;-90
2022/11/22 10:48:49;;;;;;;24.20;22.00;;;;;;;6.25;85.50;96700.14;104629;1334;22237;-84
2022/11/22 10:51:43;;;;;;;24.20;21.90;;;;;;;6.34;86.16;96693.46;104904;1325;22207;-88
2022/11/22 10:54:51;;;;;;;26.60;24.20;;;;;;;6.45;86.05;96689.34;104523;1331;22133;-87
2022/11/22 10:57:45;;;;;;;27.90;25.10;;;;;;;6.55;84.72;96686.85;104382;1335;22212;-86
2022/11/22 11:00:21;;;;;;;28.90;26.20;;;;;;;6.69;85.28;96681.42;104401;1335;22142;-85
2022/11/22 11:03:11;;;;;;;256.70;30.50;;;;;;;6.81;85.39;96679.84;104227;1339;22297;-88
2022/11/22 11:05:54;;;;;;;27.70;25.00;;;;;;;7.04;84.62;96677.39;104170;1339;22227;-88
2022/11/22 11:08:55;;;;;;;27.40;24.90;;;;;;;8.20;83.98;96670.73;104453;1329;22250;-85
2022/11/22 11:11:45;;;;;;;22.70;20.70;;;;;;;9.62;82.44;96666.09;104451;1329;22257;-86
2022/11/22 11:14:34;;;;;;;22.20;20.20;;;;;;;10.32;80.10;96668.16;104476;1329;22306;-85
2022/11/22 11:17:04;;;;;;;22.40;20.30;;;;;;;10.59;79.78;96662.09;104538;1329;22309;-86
2022/11/22 11:19:37;;;;;;;25.10;19.50;;;;;;;10.49;80.80;96662.80;104349;1330;22352;-86
2022/11/22 11:22:08;;;;;;;19.80;17.80;;;;;;;10.62;78.50;96661.16;104141;1340;22315;-83
2022/11/22 11:24:39;;;;;;;21.70;18.60;;;;;;;10.98;75.14;96659.65;104409;1332;22942;-84
2022/11/22 11:27:10;;;;;;;20.20;18.10;;;;;;;11.80;75.89;96659.49;104495;1325;22119;-83
2022/11/22 11:29:38;;;;;;;18.70;16.90;;;;;;;12.65;75.03;96658.23;104534;1332;22315;-84
2022/11/22 11:32:19;;;;;;;18.80;17.00;;;;;;;13.37;73.38;96658.84;104603;1322;23027;-84
2022/11/22 11:34:56;;;;;;;18.50;16.80;;;;;;;13.78;70.25;96664.30;105066;1317;22881;-84
2022/11/22 11:37:31;;;;;;;18.50;16.80;;;;;;;14.12;69.68;96662.25;105015;1309;22744;-85
2022/11/22 11:39:59;;;;;;;18.10;16.50;;;;;;;14.40;67.60;96664.42;104952;1327;22269;-86
2022/11/22 11:42:34;;;;;;;18.70;16.80;;;;;;;14.54;66.16;96662.49;104896;1327;22311;-85
2022/11/22 11:45:17;;;;;;;19.40;17.40;;;;;;;14.65;65.04;96665.61;105321;1311;22174;-84
2022/11/22 11:47:45;;;;;;;25.20;19.90;;;;;;;14.96;62.62;96659.66;104943;1327;22258;-84
2022/11/22 11:50:21;;;;;;;21.20;18.70;;;;;;;15.06;63.11;96662.34;105020;1326;22212;-82
2022/11/22 11:53:02;;;;;;;20.50;18.40;;;;;;;15.23;62.18;96660.64;105319;1320;22086;-84
2022/11/22 11:55:34;;;;;;;30.00;19.50;;;;;;;15.33;61.62;96662.77;104887;1327;22121;-85